Rakitna Rakitna


Verjetnost toče več informacij Hail probability


Kamera VP Rakitna več informacij Weather station camera


Cestna kamera več informacij Road camera


Obiščite še:

Dobrodošli v RakitniRakitna website

Gozdna in arheološka učna potforest learning trail

Jamborna potmast road



METAR v bližini

   
LJLJ - Ljubljana
Posodobljeno: 25-05-2024 13:30
delno oblačno  
delno oblačno  
   Veter: VJV 9.3 km/h
Veter: VJV 9.3 km/h
Temperatura: 23°C
Točka rosišča: 11°C
Vlažnost: 47%
Zračni tlak: 1017 hPa
Oblaki: delno oblačno
Vidljivost: več kot 10 km
Podrobnosti o oblakih: nekaj oblakov 6000 ft,
delno oblačno 18000 ft
LJLJ 251130Z 11005KT 040V140 9999 FEW060 SCT180 23/11 Q1017 NOSIG
LJCE - Cerklje ob Krki
Posodobljeno: 25-05-2024 13:30
pretežno oblačno  
pretežno oblačno  
   Veter: Vzhod 9.3 km/h
Veter: Vzhod 9.3 km/h
Temperatura: 23°C
Točka rosišča: 11°C
Vlažnost: 47%
Zračni tlak: 1017 hPa
Oblaki: pretežno oblačno
Vidljivost: več kot 10 km
Podrobnosti o oblakih: nekaj oblakov 4000 ft,
pretežno oblačno 23000 ft
LJCE 251130Z 09005KT 040V120 9999 FEW040 BKN230 23/11 Q1017 RMK BLU
LJMB - Maribor
Posodobljeno: 25-05-2024 13:30
pretežno oblačno  
pretežno oblačno  
   Veter: JV 9.3 km/h
Veter: JV 9.3 km/h
Temperatura: 22°C
Točka rosišča: 9°C
Vlažnost: 44%
Zračni tlak: 1017 hPa
Oblaki: pretežno oblačno
Vidljivost: več kot 10 km
Podrobnosti o oblakih: nekaj oblakov 5000 ft,
pretežno oblačno 23000 ft
LJMB 251130Z 13005KT 090V190 9999 FEW050 BKN230 22/09 Q1017
LJPZ - Portorož
Posodobljeno: 25-05-2024 13:30
delno oblačno  
delno oblačno  
   Veter: Zahod 13 km/h
Veter: Zahod 13 km/h
Temperatura: 23°C
Točka rosišča: 14°C
Vlažnost: 57%
Zračni tlak: 1016 hPa
Oblaki: delno oblačno
Vidljivost: več kot 10 km
Podrobnosti o oblakih: nekaj oblakov 4100 ft,
delno oblačno 14000 ft
LJPZ 251130Z 26007KT 240V300 9999 FEW041TCU SCT140 23/14 Q1016
LDRI - Rijeka, Airport, Croatia
Posodobljeno: 25-05-2024 13:30
nekaj oblakov  
nekaj oblakov  
   Veter: Zahod 7.4 km/h
Veter: Zahod 7.4 km/h
Temperatura: 25°C
Točka rosišča: 10°C
Vlažnost: 39%
Zračni tlak: 1016 hPa
Oblaki: nekaj oblakov
Vidljivost: več kot 10 km
Podrobnosti o oblakih: nekaj oblakov 3700 ft
LDRI 251130Z 27004KT 230V310 9999 FEW037 25/10 Q1016
LOWK - Klagenfurt, Airport, Avstia
Posodobljeno: 25-05-2024 13:20
jasno  
jasno  
   Veter: Vzhod 9.3 km/h
Veter: Vzhod 9.3 km/h
Temperatura: 21°C
Točka rosišča: 10°C
Vlažnost: 50%
Zračni tlak: 1017 hPa
Oblaki: jasno
Vidljivost: več kot 10 km
Podrobnosti o oblakih: jasno
LOWK 251120Z AUTO 08005KT 030V190 9999 NCD 21/10 Q1017 NOSIG

Script developed by  Saratoga-weather.org Adapted for the template by  Weerstation Leuven

Vremenski podatki so objavljeni na:

Slovenska vremenska mreža

WeatherlinkIP

MapView

Geostik

Oprema, ki se uporablja:

Vremenska postaja
Davis VP2+ ventilirana

Vremenski program
WeatherLink

Vremenski server
Shuttle DS10U5

Ponudnik
Vremensko društvo ZEVS

Davis VP2+ ventilirana

WeatherLink

Shuttle DS10U5

Vremensko društvo ZEVS

Meteorološki podatki vremenske postaje Rakitna so neuradni, meteorološka postaja sama pa ni del državne mrež:e Agencije Republike Slovenije za okolje (ARSO),
je pa vključena v Vremensko društvo ZEVS. Prikazani podatki so izmerjeni točno, vendar so zgolj informativni in nimajo značaja uradnega podatka.

Podatke meri vremenska postaja "Davis VP2+ ventilirana" od 05.03.2011 dalje.

Opozarjamo, da ne prevzamemo odgovornosti za morebitno nastalo škodo, ki bi nastala zaradi odločitve, sprejete na osnovi teh podatkov!